Time;durP1;ratioP1;P1;durP2;ratioP2;P2;SDS_P1;SDS_P2;PMS_P1;PMS_P2;Temp;Humidity;BMP_temperature;BMP_pressure;BME280_temperature;BME280_humidity;BME280_pressure;Samples;Min_cycle;Max_cycle;Signal;HPM_P1;HPM_P2
2022/12/05 00:02:15;;;;;;;18.75;12.82;;;;;;;;;;5000093;28;20995;-80
2022/12/05 00:04:42;;;;;;;18.77;12.70;;;;;;;;;;5005238;28;20026;-80
2022/12/05 00:07:08;;;;;;;24.05;16.38;;;;;;;;;;5004539;28;20026;-80
2022/12/05 00:09:34;;;;;;;28.00;18.23;;;;;;;;;;5009282;28;20032;-80
2022/12/05 00:12:00;;;;;;;24.75;16.50;;;;;;;;;;5009978;28;20046;-80
2022/12/05 00:14:26;;;;;;;19.48;12.15;;;;;;;;;;5007199;28;20409;-80
2022/12/05 00:16:52;;;;;;;21.20;14.40;;;;;;;;;;5000321;28;20052;-80
2022/12/05 00:19:19;;;;;;;23.73;15.85;;;;;;;;;;4997096;28;20358;-80
2022/12/05 00:21:45;;;;;;;17.50;12.27;;;;;;;;;;4992696;28;20026;-80
2022/12/05 00:24:13;;;;;;;17.35;11.90;;;;;;;;;;4997261;28;20049;-80
2022/12/05 00:26:39;;;;;;;12.52;7.85;;;;;;;;;;5007256;28;20058;-80
2022/12/05 00:29:05;;;;;;;17.02;10.10;;;;;;;;;;5008914;28;20092;-80
2022/12/05 00:31:31;;;;;;;17.98;11.57;;;;;;;;;;4999358;28;20065;-80
2022/12/05 00:33:59;;;;;;;15.18;10.85;;;;;;;;;;4988393;28;20038;-80
2022/12/05 00:36:27;;;;;;;17.88;12.48;;;;;;;;;;5000723;28;20023;-80
2022/12/05 00:38:54;;;;;;;15.13;10.25;;;;;;;;;;5005276;28;20037;-80
2022/12/05 00:41:24;;;;;;;18.40;12.13;;;;;;;;;;5002243;28;20108;-80
2022/12/05 00:43:51;;;;;;;21.23;14.02;;;;;;;;;;4999310;28;20789;-80
2022/12/05 00:46:19;;;;;;;17.90;13.30;;;;;;;;;;5001173;28;20033;-80
2022/12/05 00:48:45;;;;;;;20.30;13.55;;;;;;;;;;4999963;28;20130;-80
2022/12/05 00:51:15;;;;;;;19.23;12.98;;;;;;;;;;4994991;28;20109;-80
2022/12/05 00:53:41;;;;;;;19.27;12.73;;;;;;;;;;4999334;28;20045;-80
2022/12/05 00:56:08;;;;;;;20.50;15.00;;;;;;;;;;5004276;28;20037;-80
2022/12/05 00:58:34;;;;;;;22.42;15.50;;;;;;;;;;5008547;28;20046;-80
2022/12/05 01:01:14;;;;;;;18.92;13.65;;;;;;;;;;5007331;28;20534;-80
2022/12/05 01:03:40;;;;;;;22.20;15.85;;;;;;;;;;4995588;28;20129;-81
2022/12/05 01:06:07;;;;;;;19.67;13.68;;;;;;;;;;4992927;28;20058;-80
2022/12/05 01:08:33;;;;;;;19.63;13.35;;;;;;;;;;4999734;28;20042;-80
2022/12/05 01:11:00;;;;;;;35.00;21.15;;;;;;;;;;5003704;28;20440;-80
2022/12/05 01:13:26;;;;;;;29.70;19.75;;;;;;;;;;4985047;28;20903;-80
2022/12/05 01:15:52;;;;;;;31.70;18.85;;;;;;;;;;4995846;28;20109;-80
2022/12/05 01:18:19;;;;;;;34.20;20.25;;;;;;;;;;5008237;28;20473;-80
2022/12/05 01:20:45;;;;;;;27.30;17.80;;;;;;;;;;4992367;28;20142;-80
2022/12/05 01:23:11;;;;;;;25.67;15.93;;;;;;;;;;5004780;28;20047;-80
2022/12/05 01:25:45;;;;;;;26.27;17.33;;;;;;;;;;5005547;28;20056;-80
2022/12/05 01:28:11;;;;;;;23.45;14.00;;;;;;;;;;4998109;28;20145;-80
2022/12/05 01:30:41;;;;;;;23.70;15.15;;;;;;;;;;5004358;28;20113;-80
2022/12/05 01:33:08;;;;;;;20.95;14.02;;;;;;;;;;5006976;28;20034;-79
2022/12/05 01:35:38;;;;;;;20.27;13.65;;;;;;;;;;4993581;28;20023;-80
2022/12/05 01:38:04;;;;;;;23.05;15.77;;;;;;;;;;4991752;28;20041;-81
2022/12/05 01:40:31;;;;;;;22.52;15.18;;;;;;;;;;4995739;28;20033;-81
2022/12/05 01:42:57;;;;;;;21.50;13.80;;;;;;;;;;4994131;28;20038;-80
2022/12/05 01:45:31;;;;;;;27.80;17.35;;;;;;;;;;4981242;28;20040;-80
2022/12/05 01:47:58;;;;;;;25.55;16.35;;;;;;;;;;4994242;28;20038;-81
2022/12/05 01:50:24;;;;;;;24.63;16.00;;;;;;;;;;4990747;28;20635;-81
2022/12/05 01:52:50;;;;;;;26.80;16.75;;;;;;;;;;4976840;28;20134;-80
2022/12/05 01:55:17;;;;;;;19.75;14.00;;;;;;;;;;5000647;28;20121;-80
2022/12/05 01:57:44;;;;;;;20.73;13.63;;;;;;;;;;5000682;28;20440;-81
2022/12/05 02:00:14;;;;;;;23.23;15.65;;;;;;;;;;5006081;28;20034;-81
2022/12/05 02:03:00;;;;;;;21.27;14.38;;;;;;;;;;5005340;28;20069;-81
2022/12/05 02:05:28;;;;;;;21.58;15.35;;;;;;;;;;5004763;28;20905;-80
2022/12/05 02:07:54;;;;;;;22.67;14.20;;;;;;;;;;4986614;28;20039;-80
2022/12/05 02:10:20;;;;;;;20.35;13.95;;;;;;;;;;5000350;28;20105;-80
2022/12/05 02:12:46;;;;;;;18.75;12.73;;;;;;;;;;5000450;28;20082;-80
2022/12/05 02:15:12;;;;;;;18.70;12.40;;;;;;;;;;5001709;28;20030;-80
2022/12/05 02:17:38;;;;;;;28.77;19.35;;;;;;;;;;5001857;28;20042;-81
2022/12/05 02:20:12;;;;;;;12.20;6.55;;;;;;;;;;4991782;28;20077;-80
2022/12/05 02:22:57;;;;;;;9.55;5.75;;;;;;;;;;5002584;28;20096;-80
2022/12/05 02:25:41;;;;;;;10.63;5.80;;;;;;;;;;5003197;28;20152;-80
2022/12/05 02:28:26;;;;;;;10.38;6.82;;;;;;;;;;5001310;28;20074;-80
2022/12/05 02:31:03;;;;;;;9.65;6.05;;;;;;;;;;4996821;28;20029;-81
2022/12/05 02:33:47;;;;;;;10.57;5.93;;;;;;;;;;5002610;28;20121;-80
2022/12/05 02:36:22;;;;;;;10.68;6.28;;;;;;;;;;4999663;28;20542;-81
2022/12/05 02:39:17;;;;;;;10.65;6.00;;;;;;;;;;4978074;28;20035;-80
2022/12/05 02:41:49;;;;;;;15.00;8.70;;;;;;;;;;4904346;28;20682;-80
2022/12/05 02:44:20;;;;;;;13.88;8.10;;;;;;;;;;4998029;28;20702;-80
2022/12/05 02:46:47;;;;;;;14.23;8.88;;;;;;;;;;4990620;28;20046;-80
2022/12/05 02:49:16;;;;;;;14.30;8.55;;;;;;;;;;4992019;28;20034;-80
2022/12/05 02:51:43;;;;;;;15.68;10.05;;;;;;;;;;5008723;28;20096;-80
2022/12/05 02:54:12;;;;;;;16.80;11.57;;;;;;;;;;4974978;28;20054;-80
2022/12/05 02:56:38;;;;;;;22.80;15.30;;;;;;;;;;5002689;28;20108;-80
2022/12/05 02:59:04;;;;;;;21.23;14.13;;;;;;;;;;4999618;28;20061;-80
2022/12/05 03:01:31;;;;;;;16.13;10.13;;;;;;;;;;5007434;28;20042;-80
2022/12/05 03:03:59;;;;;;;19.08;13.43;;;;;;;;;;5001148;28;20034;-80
2022/12/05 03:06:30;;;;;;;17.23;10.43;;;;;;;;;;5003753;28;20037;-80
2022/12/05 03:08:56;;;;;;;14.85;9.80;;;;;;;;;;4997028;28;20035;-80
2022/12/05 03:11:22;;;;;;;14.73;9.70;;;;;;;;;;5003624;28;20559;-80
2022/12/05 03:13:50;;;;;;;17.85;11.68;;;;;;;;;;4993063;28;20409;-80
2022/12/05 03:16:19;;;;;;;16.50;9.77;;;;;;;;;;4981777;28;20033;-81
2022/12/05 03:18:48;;;;;;;15.30;10.55;;;;;;;;;;4998429;28;20049;-81
2022/12/05 03:21:34;;;;;;;10.93;6.85;;;;;;;;;;4984746;28;20473;-81
2022/12/05 03:24:03;;;;;;;11.70;4.93;;;;;;;;;;5000834;28;20030;-80
2022/12/05 03:26:29;;;;;;;8.63;5.60;;;;;;;;;;4991547;28;20034;-80
2022/12/05 03:29:14;;;;;;;9.05;4.95;;;;;;;;;;4986755;28;20696;-80
2022/12/05 03:32:07;;;;;;;9.15;5.82;;;;;;;;;;5012530;28;20026;-80
2022/12/05 03:34:45;;;;;;;17.52;10.43;;;;;;;;;;4960134;28;20125;-80
2022/12/05 03:37:14;;;;;;;9.95;6.75;;;;;;;;;;5008782;28;20404;-80
2022/12/05 03:39:43;;;;;;;12.07;8.45;;;;;;;;;;4985902;28;20038;-80
2022/12/05 03:42:12;;;;;;;13.82;8.40;;;;;;;;;;4994242;28;20037;-80
2022/12/05 03:44:45;;;;;;;11.27;7.28;;;;;;;;;;5006560;28;20041;-80
2022/12/05 03:47:20;;;;;;;11.02;6.50;;;;;;;;;;5005721;28;20041;-80
2022/12/05 03:49:49;;;;;;;11.65;7.07;;;;;;;;;;4996436;28;20039;-80
2022/12/05 03:52:17;;;;;;;12.50;6.75;;;;;;;;;;4992600;28;20117;-80
2022/12/05 03:54:45;;;;;;;9.07;5.38;;;;;;;;;;5006366;28;20030;-80
2022/12/05 03:57:15;;;;;;;8.00;4.20;;;;;;;;;;5002390;28;20414;-80
2022/12/05 03:59:45;;;;;;;8.35;4.68;;;;;;;;;;5001372;28;20038;-80
2022/12/05 04:02:17;;;;;;;7.35;4.35;;;;;;;;;;4994432;28;20660;-81
2022/12/05 04:04:50;;;;;;;7.85;3.58;;;;;;;;;;4997200;28;20049;-80
2022/12/05 04:07:17;;;;;;;7.80;3.83;;;;;;;;;;4991367;28;20132;-80
2022/12/05 04:09:46;;;;;;;6.90;3.90;;;;;;;;;;5004503;28;20073;-80
2022/12/05 04:12:16;;;;;;;15.65;4.20;;;;;;;;;;5011427;28;20129;-80
2022/12/05 04:14:44;;;;;;;10.05;5.70;;;;;;;;;;4982989;28;20029;-80
2022/12/05 04:17:30;;;;;;;11.07;6.55;;;;;;;;;;5010347;28;20065;-80
2022/12/05 04:22:45;;;;;;;9.48;5.82;;;;;;;;;;5009025;28;20085;-80
2022/12/05 04:27:57;;;;;;;7.03;4.05;;;;;;;;;;5007836;28;20056;-81
2022/12/05 04:30:24;;;;;;;7.75;4.85;;;;;;;;;;4985310;28;20034;-81
2022/12/05 04:33:16;;;;;;;10.70;6.35;;;;;;;;;;5006536;28;20108;-81
2022/12/05 04:35:54;;;;;;;12.85;6.55;;;;;;;;;;4954643;28;20044;-81
2022/12/05 04:38:22;;;;;;;23.60;12.02;;;;;;;;;;5005825;28;20046;-81
2022/12/05 04:41:00;;;;;;;18.83;9.98;;;;;;;;;;4998621;28;20034;-81
2022/12/05 04:43:28;;;;;;;17.15;9.50;;;;;;;;;;4977413;28;20042;-81
2022/12/05 04:45:55;;;;;;;17.73;9.25;;;;;;;;;;5006079;28;20072;-81
2022/12/05 04:48:22;;;;;;;17.73;8.07;;;;;;;;;;4976431;28;20042;-81
2022/12/05 04:50:48;;;;;;;16.10;7.53;;;;;;;;;;5002542;28;20105;-81
2022/12/05 04:53:16;;;;;;;14.13;7.90;;;;;;;;;;4988518;28;20034;-80
2022/12/05 04:55:46;;;;;;;16.05;8.55;;;;;;;;;;5007434;28;20025;-81
2022/12/05 04:58:14;;;;;;;15.15;7.53;;;;;;;;;;4999618;28;20038;-81
2022/12/05 05:00:46;;;;;;;18.90;10.93;;;;;;;;;;5006549;28;20420;-81
2022/12/05 05:03:31;;;;;;;17.77;9.35;;;;;;;;;;5001654;28;20467;-81
2022/12/05 05:05:57;;;;;;;18.75;11.80;;;;;;;;;;4990077;28;20046;-81
2022/12/05 05:08:24;;;;;;;16.45;8.57;;;;;;;;;;4982824;28;20037;-81
2022/12/05 05:11:09;;;;;;;15.45;8.45;;;;;;;;;;5003823;28;20529;-81
2022/12/05 05:13:35;;;;;;;11.95;8.15;;;;;;;;;;4990403;28;20042;-81
2022/12/05 05:16:01;;;;;;;12.25;7.43;;;;;;;;;;5001916;28;20821;-81
2022/12/05 05:18:27;;;;;;;16.88;9.73;;;;;;;;;;4994391;28;20045;-80
2022/12/05 05:20:53;;;;;;;16.23;9.18;;;;;;;;;;5006944;28;20038;-81
2022/12/05 05:23:19;;;;;;;18.50;12.32;;;;;;;;;;4977913;28;20461;-81
2022/12/05 05:25:45;;;;;;;17.70;11.40;;;;;;;;;;4982651;28;20128;-80
2022/12/05 05:28:11;;;;;;;15.15;9.52;;;;;;;;;;4980899;28;20044;-81
2022/12/05 05:30:37;;;;;;;15.88;9.63;;;;;;;;;;5005908;28;20807;-81
2022/12/05 05:33:03;;;;;;;15.70;9.95;;;;;;;;;;4986990;28;20062;-81
2022/12/05 05:35:55;;;;;;;20.20;9.48;;;;;;;;;;4999794;23;20107;-81
2022/12/05 06:30:51;;;;;;;22.15;15.02;;;;;;;;;;4988286;28;20112;-78
2022/12/05 06:33:18;;;;;;;26.35;17.65;;;;;;;;;;4987415;28;22200;-76
2022/12/05 06:35:45;;;;;;;29.13;17.42;;;;;;;;;;4995281;28;20034;-78
2022/12/05 06:38:11;;;;;;;31.13;19.35;;;;;;;;;;4986369;28;20038;-75
2022/12/05 06:40:44;;;;;;;27.60;17.70;;;;;;;;;;4985869;28;20034;-75
2022/12/05 06:43:10;;;;;;;26.65;16.25;;;;;;;;;;4985800;28;21112;-75
2022/12/05 06:45:40;;;;;;;27.83;16.33;;;;;;;;;;4966105;28;20525;-75
2022/12/05 06:48:06;;;;;;;38.20;26.40;;;;;;;;;;4986937;28;20053;-74
2022/12/05 06:50:32;;;;;;;41.47;26.67;;;;;;;;;;4983969;28;20129;-74
2022/12/05 06:52:58;;;;;;;48.15;32.85;;;;;;;;;;4980019;28;20536;-74
2022/12/05 06:55:24;;;;;;;52.15;36.15;;;;;;;;;;4985874;28;20030;-75
2022/12/05 06:57:50;;;;;;;55.33;32.83;;;;;;;;;;4984745;28;20031;-75
2022/12/05 07:03:01;;;;;;;42.38;26.25;;;;;;;;;;4985522;28;20394;-74
2022/12/05 07:05:27;;;;;;;37.90;24.88;;;;;;;;;;4986993;28;20034;-75
2022/12/05 07:07:53;;;;;;;40.35;24.92;;;;;;;;;;4986453;28;20064;-75
2022/12/05 07:10:19;;;;;;;37.28;23.15;;;;;;;;;;4989021;28;20516;-75
2022/12/05 07:12:45;;;;;;;40.92;25.60;;;;;;;;;;4986579;28;20030;-75
2022/12/05 07:15:11;;;;;;;70.20;41.42;;;;;;;;;;4985622;28;20076;-75
2022/12/05 07:17:38;;;;;;;58.60;33.30;;;;;;;;;;4986050;28;21494;-76
2022/12/05 07:20:09;;;;;;;62.58;36.13;;;;;;;;;;4988855;28;20041;-75
2022/12/05 07:22:36;;;;;;;63.50;37.17;;;;;;;;;;4987542;28;20027;-75
2022/12/05 07:25:02;;;;;;;63.08;35.70;;;;;;;;;;4989907;28;20089;-75
2022/12/05 07:27:28;;;;;;;61.47;37.67;;;;;;;;;;4988402;28;20085;-75
2022/12/05 07:29:54;;;;;;;56.42;32.47;;;;;;;;;;4987729;28;20057;-75
2022/12/05 07:32:20;;;;;;;50.38;31.63;;;;;;;;;;4988942;28;20022;-75
2022/12/05 07:34:46;;;;;;;50.92;31.38;;;;;;;;;;4986764;28;20913;-75
2022/12/05 07:37:12;;;;;;;45.03;27.15;;;;;;;;;;4982173;28;20050;-75
2022/12/05 07:39:38;;;;;;;43.53;25.08;;;;;;;;;;4989258;28;20030;-75
2022/12/05 07:42:05;;;;;;;45.08;27.70;;;;;;;;;;4985460;28;20041;-75
2022/12/05 07:44:31;;;;;;;43.90;27.58;;;;;;;;;;4989603;28;20042;-75
2022/12/05 07:46:58;;;;;;;50.35;32.08;;;;;;;;;;4990401;28;20049;-75
2022/12/05 07:49:24;;;;;;;35.90;21.08;;;;;;;;;;4988974;28;20049;-75
2022/12/05 07:51:50;;;;;;;32.97;19.95;;;;;;;;;;4989541;28;20045;-75
2022/12/05 07:54:16;;;;;;;31.63;20.50;;;;;;;;;;4988149;28;20121;-75
2022/12/05 07:56:42;;;;;;;41.70;27.52;;;;;;;;;;4988237;28;20512;-76
2022/12/05 07:59:08;;;;;;;55.38;31.30;;;;;;;;;;4987588;28;20038;-75
2022/12/05 08:01:35;;;;;;;47.45;30.73;;;;;;;;;;4984248;28;20026;-75
2022/12/05 08:04:01;;;;;;;49.28;31.05;;;;;;;;;;4985512;28;20030;-76
2022/12/05 08:06:28;;;;;;;50.08;34.35;;;;;;;;;;4989121;28;20022;-75
2022/12/05 08:08:55;;;;;;;52.65;33.92;;;;;;;;;;4989984;28;20097;-75
2022/12/05 08:11:23;;;;;;;44.88;28.77;;;;;;;;;;4989271;28;20068;-75
2022/12/05 08:13:49;;;;;;;41.63;26.65;;;;;;;;;;4986093;28;20035;-75
2022/12/05 08:16:16;;;;;;;43.40;30.52;;;;;;;;;;4987557;28;20673;-75
2022/12/05 08:18:42;;;;;;;53.80;34.33;;;;;;;;;;4983471;28;20041;-75
2022/12/05 08:21:10;;;;;;;64.03;43.88;;;;;;;;;;4988208;28;20026;-75
2022/12/05 08:23:36;;;;;;;100.90;64.30;;;;;;;;;;4989980;28;20393;-75
2022/12/05 08:26:07;;;;;;;82.38;53.22;;;;;;;;;;4988622;28;20037;-75
2022/12/05 08:28:33;;;;;;;46.45;30.05;;;;;;;;;;4985786;28;20034;-75
2022/12/05 08:31:03;;;;;;;33.15;17.80;;;;;;;;;;4986720;28;20073;-75
2022/12/05 08:33:29;;;;;;;21.05;12.27;;;;;;;;;;4985556;28;20121;-75
2022/12/05 08:35:55;;;;;;;17.98;10.35;;;;;;;;;;4988635;28;20364;-75
2022/12/05 08:38:21;;;;;;;19.90;12.10;;;;;;;;;;4984368;28;20038;-75
2022/12/05 08:40:47;;;;;;;22.92;12.38;;;;;;;;;;4981807;28;20045;-75
2022/12/05 08:43:13;;;;;;;20.52;12.98;;;;;;;;;;4984142;28;20042;-75
2022/12/05 08:45:39;;;;;;;20.55;14.23;;;;;;;;;;4989304;28;20060;-75
2022/12/05 08:48:05;;;;;;;23.88;14.73;;;;;;;;;;4982535;28;20073;-75
2022/12/05 08:50:31;;;;;;;26.75;16.20;;;;;;;;;;4984891;28;20027;-75
2022/12/05 08:52:57;;;;;;;38.60;22.50;;;;;;;;;;4986057;28;20034;-75
2022/12/05 08:55:23;;;;;;;40.25;26.58;;;;;;;;;;4987464;28;20093;-75
2022/12/05 08:57:49;;;;;;;23.90;16.60;;;;;;;;;;4983444;28;20034;-75
2022/12/05 09:00:15;;;;;;;25.83;13.23;;;;;;;;;;4989661;28;20042;-75
2022/12/05 09:02:41;;;;;;;17.70;10.30;;;;;;;;;;4983003;28;20045;-75
2022/12/05 09:05:08;;;;;;;19.23;12.07;;;;;;;;;;4986319;28;20038;-75
2022/12/05 09:07:34;;;;;;;16.20;10.32;;;;;;;;;;4984854;28;20030;-75
2022/12/05 09:10:00;;;;;;;16.98;10.68;;;;;;;;;;4986233;28;20133;-75
2022/12/05 09:12:26;;;;;;;17.80;10.98;;;;;;;;;;4983321;28;20077;-75
2022/12/05 09:14:52;;;;;;;16.67;10.32;;;;;;;;;;4982475;28;20058;-75
2022/12/05 09:17:18;;;;;;;17.52;11.73;;;;;;;;;;4986637;28;20042;-75
2022/12/05 09:19:44;;;;;;;16.52;11.30;;;;;;;;;;4989398;28;20053;-75
2022/12/05 09:22:10;;;;;;;17.83;12.10;;;;;;;;;;4985964;28;20393;-75
2022/12/05 09:24:36;;;;;;;20.38;13.30;;;;;;;;;;4986366;28;20067;-74
2022/12/05 09:27:02;;;;;;;25.55;16.60;;;;;;;;;;4985853;28;20070;-75
2022/12/05 09:29:30;;;;;;;45.75;29.55;;;;;;;;;;4987663;28;20054;-75
2022/12/05 09:31:56;;;;;;;34.33;23.15;;;;;;;;;;4982823;28;20065;-75
2022/12/05 09:34:24;;;;;;;39.33;26.40;;;;;;;;;;4986043;28;20061;-75
2022/12/05 09:36:51;;;;;;;22.50;16.08;;;;;;;;;;4985803;28;20469;-75
2022/12/05 09:39:17;;;;;;;22.95;15.23;;;;;;;;;;4986305;28;20034;-75
2022/12/05 09:44:46;;;;;;;20.75;13.38;;;;;;;;;;4984946;28;20185;-75
2022/12/05 09:47:29;;;;;;;18.50;12.57;;;;;;;;;;4984368;28;20081;-75
2022/12/05 09:50:02;;;;;;;21.23;13.73;;;;;;;;;;4988962;28;20240;-77
2022/12/05 09:52:29;;;;;;;22.33;12.98;;;;;;;;;;4981904;28;20026;-77
2022/12/05 09:54:56;;;;;;;22.98;13.90;;;;;;;;;;4984745;28;20030;-76
2022/12/05 09:57:36;;;;;;;21.67;13.90;;;;;;;;;;4983234;28;20045;-77
2022/12/05 10:00:04;;;;;;;22.27;15.02;;;;;;;;;;4981806;28;20076;-76
2022/12/05 10:02:51;;;;;;;18.63;12.77;;;;;;;;;;4986240;28;20062;-77
2022/12/05 10:05:21;;;;;;;20.77;12.70;;;;;;;;;;4985325;28;20042;-76
2022/12/05 10:07:59;;;;;;;23.75;15.05;;;;;;;;;;4982924;28;20057;-76
2022/12/05 10:10:34;;;;;;;23.85;15.75;;;;;;;;;;4990282;28;20035;-75
2022/12/05 10:13:18;;;;;;;24.42;16.08;;;;;;;;;;4985615;28;20302;-76
2022/12/05 10:15:47;;;;;;;29.05;19.02;;;;;;;;;;4988774;28;20080;-76
2022/12/05 10:18:13;;;;;;;26.83;17.05;;;;;;;;;;4981821;28;20066;-77
2022/12/05 10:20:59;;;;;;;21.95;14.15;;;;;;;;;;4972654;28;20038;-76
2022/12/05 10:23:31;;;;;;;22.67;14.05;;;;;;;;;;4968143;28;20051;-76
2022/12/05 10:25:58;;;;;;;22.90;14.93;;;;;;;;;;4981638;28;20058;-76
2022/12/05 10:28:45;;;;;;;19.73;12.98;;;;;;;;;;4985309;28;20038;-77
2022/12/05 10:31:13;;;;;;;22.48;15.05;;;;;;;;;;4923808;28;20058;-77
2022/12/05 10:33:45;;;;;;;27.77;17.83;;;;;;;;;;4981113;28;20031;-76
2022/12/05 10:36:13;;;;;;;17.63;11.75;;;;;;;;;;4967455;28;20034;-76
2022/12/05 10:38:39;;;;;;;27.77;19.75;;;;;;;;;;4986590;28;20057;-76
2022/12/05 10:41:07;;;;;;;23.98;16.27;;;;;;;;;;4985177;28;20038;-77
2022/12/05 10:43:34;;;;;;;28.08;20.00;;;;;;;;;;4988591;28;20038;-77
2022/12/05 10:46:01;;;;;;;27.30;20.60;;;;;;;;;;4988302;28;20105;-77
2022/12/05 10:48:30;;;;;;;30.80;20.83;;;;;;;;;;4970623;28;20493;-77
2022/12/05 10:50:57;;;;;;;31.60;21.35;;;;;;;;;;4988206;28;20034;-77
2022/12/05 10:53:37;;;;;;;28.83;18.48;;;;;;;;;;4985077;28;20034;-76
2022/12/05 10:56:06;;;;;;;23.80;16.58;;;;;;;;;;4988040;28;20524;-76
2022/12/05 10:58:32;;;;;;;19.45;14.52;;;;;;;;;;4964163;28;20045;-76
2022/12/05 11:01:06;;;;;;;17.98;11.80;;;;;;;;;;4987098;28;20030;-76
2022/12/05 11:03:34;;;;;;;14.27;8.80;;;;;;;;;;4966133;28;20589;-76
2022/12/05 11:06:01;;;;;;;16.38;9.27;;;;;;;;;;4964812;28;20922;-77
2022/12/05 11:08:28;;;;;;;13.63;8.77;;;;;;;;;;4982302;28;20878;-77
2022/12/05 11:11:15;;;;;;;17.00;10.13;;;;;;;;;;4984100;28;20026;-77
2022/12/05 11:13:51;;;;;;;14.15;8.82;;;;;;;;;;4951312;28;20042;-77
2022/12/05 11:16:37;;;;;;;16.15;10.30;;;;;;;;;;4988477;28;20409;-76
2022/12/05 11:19:17;;;;;;;19.20;13.82;;;;;;;;;;4985288;28;20118;-76
2022/12/05 11:21:44;;;;;;;17.98;12.23;;;;;;;;;;4986422;28;20050;-76
2022/12/05 11:24:33;;;;;;;16.98;9.80;;;;;;;;;;4984728;28;20058;-77
2022/12/05 11:27:00;;;;;;;11.73;7.32;;;;;;;;;;4980331;28;20046;-77
2022/12/05 11:29:32;;;;;;;12.75;8.75;;;;;;;;;;4985341;28;20054;-76
2022/12/05 11:31:59;;;;;;;11.20;7.20;;;;;;;;;;4983852;28;20481;-76
2022/12/05 11:34:31;;;;;;;16.38;7.80;;;;;;;;;;4984500;28;20046;-76
2022/12/05 11:36:59;;;;;;;12.07;7.80;;;;;;;;;;4968765;28;20027;-77
2022/12/05 11:39:25;;;;;;;9.77;6.03;;;;;;;;;;4984997;28;20069;-76
2022/12/05 11:42:03;;;;;;;11.65;7.53;;;;;;;;;;4987231;28;20085;-76
2022/12/05 11:44:38;;;;;;;12.85;8.55;;;;;;;;;;4967168;28;20059;-76
2022/12/05 11:47:07;;;;;;;15.30;9.63;;;;;;;;;;4987822;28;20042;-76
2022/12/05 11:49:42;;;;;;;14.82;10.73;;;;;;;;;;4987871;28;20031;-76
2022/12/05 11:52:24;;;;;;;10.40;6.25;;;;;;;;;;4987488;28;20030;-76
2022/12/05 11:55:05;;;;;;;14.95;9.95;;;;;;;;;;4988069;28;20038;-76
2022/12/05 11:57:40;;;;;;;18.40;11.55;;;;;;;;;;4989625;28;20057;-76
2022/12/05 12:00:15;;;;;;;13.70;8.63;;;;;;;;;;4991352;28;20113;-76
2022/12/05 12:03:00;;;;;;;16.40;8.48;;;;;;;;;;4989346;28;20031;-77
2022/12/05 12:05:44;;;;;;;16.20;9.02;;;;;;;;;;4988446;28;20413;-76
2022/12/05 12:08:20;;;;;;;12.73;9.15;;;;;;;;;;4988999;28;20038;-77
2022/12/05 12:10:46;;;;;;;15.07;8.55;;;;;;;;;;4989517;28;20358;-76
2022/12/05 12:13:21;;;;;;;9.20;5.60;;;;;;;;;;4987969;28;20057;-77
2022/12/05 12:16:03;;;;;;;11.98;7.75;;;;;;;;;;4988995;28;20030;-78
2022/12/05 12:18:47;;;;;;;18.05;12.45;;;;;;;;;;4984891;28;20038;-77
2022/12/05 12:21:17;;;;;;;15.30;10.13;;;;;;;;;;4988993;28;20053;-77
2022/12/05 12:24:02;;;;;;;15.55;8.70;;;;;;;;;;4989111;28;20166;-78
2022/12/05 12:26:34;;;;;;;11.80;7.50;;;;;;;;;;4985837;28;20030;-78
2022/12/05 12:29:18;;;;;;;14.18;9.63;;;;;;;;;;4971643;28;20601;-77
2022/12/05 12:31:44;;;;;;;18.63;12.13;;;;;;;;;;4983683;28;20064;-77
2022/12/05 12:34:10;;;;;;;15.32;10.80;;;;;;;;;;4990544;28;20106;-77
2022/12/05 12:36:45;;;;;;;14.25;8.70;;;;;;;;;;4992490;28;20042;-77
2022/12/05 12:39:20;;;;;;;14.13;10.45;;;;;;;;;;4974366;28;20138;-77
2022/12/05 12:42:09;;;;;;;21.92;14.95;;;;;;;;;;4990337;28;20531;-77
2022/12/05 12:44:35;;;;;;;17.52;11.68;;;;;;;;;;4992839;28;20034;-77
2022/12/05 12:47:02;;;;;;;18.00;12.93;;;;;;;;;;4991347;28;20087;-78
2022/12/05 12:49:43;;;;;;;14.52;9.07;;;;;;;;;;4987797;28;20054;-78
2022/12/05 12:52:22;;;;;;;13.27;8.05;;;;;;;;;;4991676;28;20025;-77
2022/12/05 12:54:51;;;;;;;9.52;6.13;;;;;;;;;;4991791;28;20136;-77
2022/12/05 12:57:22;;;;;;;13.43;8.57;;;;;;;;;;4987951;28;20026;-77
2022/12/05 12:59:55;;;;;;;16.80;9.73;;;;;;;;;;4991000;28;20038;-78
2022/12/05 13:02:40;;;;;;;13.93;8.88;;;;;;;;;;4988563;28;20681;-78
2022/12/05 13:05:15;;;;;;;16.08;8.77;;;;;;;;;;4990478;28;20043;-77
2022/12/05 13:07:45;;;;;;;23.80;13.68;;;;;;;;;;4988398;28;20034;-77
2022/12/05 13:10:34;;;;;;;21.25;12.10;;;;;;;;;;4990696;28;20045;-77
2022/12/05 13:13:02;;;;;;;23.55;12.80;;;;;;;;;;4988028;28;20381;-77
2022/12/05 13:15:51;;;;;;;18.08;9.90;;;;;;;;;;4987970;28;20037;-78
2022/12/05 13:18:18;;;;;;;19.70;10.15;;;;;;;;;;4981235;28;20788;-77
2022/12/05 13:20:45;;;;;;;21.13;13.05;;;;;;;;;;4991911;28;20037;-78
2022/12/05 13:23:16;;;;;;;18.02;13.10;;;;;;;;;;5009116;28;20626;-77
2022/12/05 13:25:43;;;;;;;13.23;9.13;;;;;;;;;;4991833;28;20125;-77
2022/12/05 13:28:27;;;;;;;13.68;8.05;;;;;;;;;;5008400;28;20062;-77
2022/12/05 13:30:57;;;;;;;11.25;7.88;;;;;;;;;;5008881;28;20053;-78
2022/12/05 13:33:25;;;;;;;9.18;6.00;;;;;;;;;;5004593;28;20036;-77
2022/12/05 13:44:32;;;;;;;10.63;6.20;;;;;;;;;;5001690;28;20447;-77
2022/12/05 13:46:58;;;;;;;9.85;5.35;;;;;;;;;;5007141;28;20034;-77
2022/12/05 13:49:29;;;;;;;9.90;5.47;;;;;;;;;;5008053;28;20137;-77
2022/12/05 13:52:03;;;;;;;8.48;4.55;;;;;;;;;;5009348;28;20231;-77
2022/12/05 13:54:30;;;;;;;8.05;4.47;;;;;;;;;;5004937;28;20048;-77
2022/12/05 13:57:00;;;;;;;7.55;3.97;;;;;;;;;;5013776;28;20026;-77
2022/12/05 13:59:45;;;;;;;10.18;4.60;;;;;;;;;;5003466;28;20074;-77
2022/12/05 14:02:29;;;;;;;11.60;5.00;;;;;;;;;;5006007;28;20563;-77
2022/12/05 14:04:55;;;;;;;10.65;5.10;;;;;;;;;;5005975;28;20045;-77
2022/12/05 14:07:39;;;;;;;13.23;4.75;;;;;;;;;;5003747;28;20068;-77
2022/12/05 14:10:05;;;;;;;9.45;4.38;;;;;;;;;;4986881;28;20038;-77
2022/12/05 14:12:51;;;;;;;8.60;3.88;;;;;;;;;;4995927;28;20080;-78
2022/12/05 14:15:27;;;;;;;8.73;4.72;;;;;;;;;;5009930;28;20026;-77
2022/12/05 14:18:02;;;;;;;7.68;4.20;;;;;;;;;;5006804;28;20044;-77
2022/12/05 14:20:46;;;;;;;8.20;4.70;;;;;;;;;;5005194;28;20037;-78
2022/12/05 14:23:29;;;;;;;8.43;4.50;;;;;;;;;;5005684;28;20041;-77
2022/12/05 14:26:01;;;;;;;8.10;4.70;;;;;;;;;;4985299;28;20148;-74
2022/12/05 14:28:30;;;;;;;10.50;4.53;;;;;;;;;;4996185;28;20673;-77
2022/12/05 14:31:15;;;;;;;7.10;3.55;;;;;;;;;;5008207;28;20626;-77
2022/12/05 14:33:41;;;;;;;7.03;4.00;;;;;;;;;;5005067;28;20072;-78
2022/12/05 14:36:14;;;;;;;8.45;5.05;;;;;;;;;;5010072;28;20104;-78
2022/12/05 14:38:40;;;;;;;10.02;5.63;;;;;;;;;;5007758;28;20461;-77
2022/12/05 14:41:12;;;;;;;10.18;5.25;;;;;;;;;;5007477;28;20041;-78
2022/12/05 14:43:38;;;;;;;9.23;4.88;;;;;;;;;;5010178;28;20045;-78
2022/12/05 14:46:07;;;;;;;10.02;4.15;;;;;;;;;;5008409;28;20030;-77
2022/12/05 14:48:34;;;;;;;7.07;3.70;;;;;;;;;;5008101;28;20165;-78
2022/12/05 14:51:00;;;;;;;6.00;2.83;;;;;;;;;;5003380;28;20037;-77
2022/12/05 14:53:31;;;;;;;8.48;3.00;;;;;;;;;;5009809;28;20495;-77
2022/12/05 14:56:00;;;;;;;7.65;3.47;;;;;;;;;;5003226;28;20026;-77
2022/12/05 14:58:26;;;;;;;10.00;4.45;;;;;;;;;;5007001;28;20088;-77
2022/12/05 15:00:57;;;;;;;24.55;12.57;;;;;;;;;;5007963;28;20038;-77
2022/12/05 15:03:27;;;;;;;39.38;20.58;;;;;;;;;;5002606;28;20037;-77
2022/12/05 15:05:53;;;;;;;79.43;39.78;;;;;;;;;;5007786;28;20033;-77
2022/12/05 15:08:20;;;;;;;64.10;35.70;;;;;;;;;;5007241;28;21135;-78
2022/12/05 15:10:47;;;;;;;80.55;43.10;;;;;;;;;;5005036;28;20088;-77
2022/12/05 15:13:16;;;;;;;103.63;51.08;;;;;;;;;;4983657;28;20029;-77
2022/12/05 15:15:43;;;;;;;78.72;38.83;;;;;;;;;;4991468;28;20485;-77
2022/12/05 15:18:21;;;;;;;62.58;32.65;;;;;;;;;;5004696;28;20103;-77
2022/12/05 15:20:50;;;;;;;40.55;20.88;;;;;;;;;;5001179;28;20495;-77
2022/12/05 15:23:35;;;;;;;31.90;16.60;;;;;;;;;;5006827;28;20108;-77
2022/12/05 15:26:01;;;;;;;27.70;14.95;;;;;;;;;;5007097;28;20079;-77
2022/12/05 15:28:27;;;;;;;26.80;13.45;;;;;;;;;;5011445;28;20044;-78
2022/12/05 15:30:54;;;;;;;18.50;9.98;;;;;;;;;;5007326;28;20544;-77
2022/12/05 15:33:20;;;;;;;16.30;9.07;;;;;;;;;;5010897;28;20034;-78
2022/12/05 15:35:47;;;;;;;18.00;9.80;;;;;;;;;;5008397;28;20049;-78
2022/12/05 15:38:21;;;;;;;27.35;15.18;;;;;;;;;;5011110;28;20034;-77
2022/12/05 15:40:47;;;;;;;27.63;14.40;;;;;;;;;;5004408;28;20040;-78
2022/12/05 15:43:27;;;;;;;26.42;14.45;;;;;;;;;;5005904;28;20084;-78
2022/12/05 15:46:18;;;;;;;21.55;13.32;;;;;;;;;;5009734;28;20071;-77
2022/12/05 15:48:44;;;;;;;22.27;12.13;;;;;;;;;;5009335;28;20029;-78
2022/12/05 15:51:10;;;;;;;19.00;11.23;;;;;;;;;;5010471;28;20034;-78
2022/12/05 15:53:40;;;;;;;20.15;11.02;;;;;;;;;;5011021;28;20038;-78
2022/12/05 15:56:11;;;;;;;21.88;15.95;;;;;;;;;;5007612;28;20864;-77